Flight Track Log - Related Links

Times and Time Zones

All times are in EDT time to prevent confusion due to time zone crossing. See the ASQ4421 flight status page for this flight to view local times or setup timezone preferences in your user account.

Time Position Orientation Groundspeed Altitude Reporting Facility
EDT Latitude Longitude Course Direction KTS MPH feet Rate Location/Type
Thu 06:29:25 AM 45.3000 -75.6667 249° West 70 81 500  Level Montreal Center
Thu 06:30:25 AM 45.2667 -75.6167 133° Southeast 190 219 2,200 1,650 Climbing Montreal Center
Thu 06:31:25 AM 45.2333 -75.5667 133° Southeast 250 288 3,800 2,200 Climbing Montreal Center
Thu 06:32:25 AM 45.2000 -75.6167 227° Southwest 220 253 6,600 2,650 Climbing Montreal Center
Thu 06:33:25 AM 45.2333 -75.7000 300° West 230 265 9,100 2,100 Climbing Montreal Center
Thu 06:34:25 AM 45.2500 -75.8000 283° West 250 288 10,800 1,350 Climbing Montreal Center
Thu 06:35:00 AM 45.1511 -76.4831 249° West  Level Estimated
Thu 06:35:25 AM 45.2667 -75.9167 282° West 290 334 11,800  Level Montreal Center
Thu 06:36:25 AM 45.3000 -76.0333 292° West 320 368 12,900 1,050 Climbing Montreal Center
Thu 06:37:25 AM 45.3167 -76.1667 280° West 330 380 13,900 1,050 Climbing Montreal Center
Thu 06:38:25 AM 45.3500 -76.3000 290° West 340 391 15,000 1,050 Climbing Montreal Center
Thu 06:39:25 AM 45.3500 -76.4167 270° West 350 403 16,000 1,000 Climbing Montreal Center
Thu 06:40:25 AM 45.3167 -76.5667 253° West 360 414 17,000 1,150 Climbing Montreal Center
Thu 06:41:25 AM 45.2833 -76.7000 250° West 360 414 18,300 1,150 Climbing Montreal Center
Thu 06:42:25 AM 45.2500 -76.8167 248° West 370 426 19,300 1,050 Climbing Montreal Center
Thu 06:43:25 AM 45.2167 -76.9667 253° West 370 426 20,400 1,050 Climbing Montreal Center
Thu 06:44:25 AM 45.1833 -77.1167 253° West 380 437 21,400 1,000 Climbing Montreal Center
Thu 06:45:25 AM 45.1500 -77.2667 253° West 380 437 22,400 1,000 Climbing Montreal Center
Thu 06:46:25 AM 45.1167 -77.4000 251° West 380 437 23,400 750 Climbing Montreal Center
Thu 06:47:25 AM 45.0833 -77.5500 253° West 400 460 23,900 300 Climbing Montreal Center
Thu 06:48:25 AM 45.0500 -77.7000 253° West 420 483 24,000 50 Climbing Montreal Center
Thu 06:49:25 AM 45.0000 -77.8667 247° West 430 495 24,000  Level Montreal Center
Thu 06:50:25 AM 44.9667 -78.0333 254° West 430 495 24,000  Level Montreal Center
Thu 06:51:25 AM 44.9167 -78.1833 245° Southwest 440 506 24,000  Level Montreal Center
Thu 06:52:25 AM 44.8833 -78.3500 254° West 440 506 24,000  Level Montreal Center
Thu 06:53:25 AM 44.8500 -78.5167 254° West 440 506 24,000  Level Montreal Center
Thu 06:54:25 AM 44.8000 -78.6833 247° West 440 506 24,000  Level Montreal Center
Thu 06:55:25 AM 44.7500 -78.8500 247° West 440 506 24,000  Level Montreal Center
Thu 06:56:25 AM 44.7000 -78.9833 242° Southwest 440 506 24,000  Level Montreal Center
Thu 06:57:25 AM 44.6500 -79.1500 247° West 440 506 24,000  Level Montreal Center
Thu 06:58:25 AM 44.5833 -79.3000 238° Southwest 440 506 24,000  Level Montreal Center
Thu 06:59:25 AM 44.5333 -79.4667 247° West 440 506 24,000  Level Montreal Center
Thu 07:00:54 AM 44.4500 -79.6500 238° Southwest 440 506 24,000  Level Toronto Center
Thu 07:01:54 AM 44.4000 -79.8167 247° West 440 506 24,000  Level Toronto Center
Thu 07:02:54 AM 44.3500 -79.9667 245° Southwest 430 495 24,000  Level Toronto Center
Thu 07:03:54 AM 44.3000 -80.1167 245° Southwest 430 495 24,000  Level Toronto Center
Thu 07:04:54 AM 44.2500 -80.2667 245° Southwest 430 495 24,000  Level Toronto Center
Thu 07:05:54 AM 44.2000 -80.4167 245° Southwest 430 495 24,000  Level Toronto Center
Thu 07:06:54 AM 44.1333 -80.5667 238° Southwest 430 495 24,000  Level Toronto Center
Thu 07:07:54 AM 44.0833 -80.7167 245° Southwest 430 495 24,000  Level Toronto Center
Thu 07:08:54 AM 44.0167 -80.8667 238° Southwest 430 495 24,000  Level Toronto Center
Thu 07:09:54 AM 43.9667 -81.0167 245° Southwest 420 483 24,000  Level Toronto Center
Thu 07:10:54 AM 43.9167 -81.1667 245° Southwest 420 483 24,000  Level Toronto Center
Thu 07:11:54 AM 43.8667 -81.3000 243° Southwest 420 483 24,000  Level Toronto Center
Thu 07:12:54 AM 43.8167 -81.4333 243° Southwest 410 472 24,000  Level Toronto Center
Thu 07:13:54 AM 43.7667 -81.6000 247° West 410 472 24,000  Level Toronto Center
Thu 07:14:54 AM 43.7333 -81.7333 251° West 410 472 24,000  Level Toronto Center
Thu 07:15:54 AM 43.6667 -81.8667 235° Southwest 410 472 24,000  Level Toronto Center
Thu 07:16:54 AM 43.6167 -82.0000 243° Southwest 410 472 24,000  Level Toronto Center
Thu 07:17:54 AM 43.5500 -82.1667 241° Southwest 420 483 24,000  Level Toronto Center
Thu 07:18:53 AM 43.5269 -82.2847 255° West 416 479 24,000  Level Cleveland Center
Thu 07:19:55 AM 43.4742 -82.4258 243° Southwest 416 479 24,000  Level Cleveland Center
Thu 07:20:56 AM 43.4211 -82.5642 242° Southwest 412 474 24,000  Level Cleveland Center
Thu 07:21:58 AM 43.3728 -82.6939 243° Southwest 391 450 24,000  Level Cleveland Center
Thu 07:23:00 AM 43.3169 -82.8386 242° Southwest 363 418 24,000  Level Cleveland Center
Thu 07:24:02 AM 43.2703 -82.9611 242° Southwest 364 419 24,000  Level Cleveland Center
Thu 07:25:03 AM 43.2217 -83.0875 242° Southwest 373 429 24,000  Level Cleveland Center
Thu 07:26:05 AM 43.1703 -83.2183 242° Southwest 388 447 24,000  Level Cleveland Center
Thu 07:27:07 AM 43.1367 -83.3561 252° West 384 442 24,000  Level Cleveland Center
Thu 07:28:09 AM 43.1167 -83.4969 259° West 380 437 24,000  Level Cleveland Center
Thu 07:29:11 AM 43.0897 -83.6647 258° West 378 435 24,000  Level Cleveland Center
Thu 07:30:12 AM 43.0669 -83.8103 258° West 391 450 24,000  Level Cleveland Center
Thu 07:31:14 AM 43.0433 -83.9614 258° West 406 467 24,000  Level Cleveland Center
Thu 07:32:16 AM 43.0189 -84.1072 257° West 398 458 24,000  Level Cleveland Center
Thu 07:33:17 AM 42.9958 -84.2517 258° West 393 452 24,000  Level Cleveland Center
Thu 07:34:19 AM 42.9722 -84.4064 258° West 390 449 24,000  Level Cleveland Center
Thu 07:35:21 AM 42.9472 -84.5544 257° West 399 459 24,000  Level Cleveland Center
Thu 07:36:23 AM 42.9219 -84.7047 257° West 406 467 24,000  Level Cleveland Center
Thu 07:37:24 AM 42.8981 -84.8533 258° West 402 463 24,000  Level Cleveland Center
Thu 07:38:26 AM 42.8678 -85.0317 257° West 402 463 24,000  Level Cleveland Center
Thu 07:39:28 AM 42.8419 -85.1792 257° West 400 460 24,000 -49 Level Cleveland Center
Thu 07:40:29 AM 42.8175 -85.3269 257° West 399 459 23,900 -537 Descending Cleveland Center
Thu 07:41:31 AM 42.7914 -85.4722 256° West 396 456 22,900 -968 Descending Cleveland Center
Thu 07:42:33 AM 42.7653 -85.6183 256° West 395 455 21,900 -1,016 Descending Cleveland Center
Thu 07:43:35 AM 42.7389 -85.7661 256° West 399 459 20,800 -829 Descending Cleveland Center
Thu 07:44:36 AM 42.7122 -85.9122 256° West 396 456 20,200 -390 Descending Cleveland Center
Thu 07:45:38 AM 42.6858 -86.0536 256° West 386 444 20,000 -97 Descending Cleveland Center
Thu 07:46:40 AM 42.6597 -86.1975 256° West 389 448 20,000 -194 Level Cleveland Center
Thu 07:47:42 AM 42.6272 -86.3694 256° West 391 450 19,600 -708 Descending Cleveland Center
Thu 07:49:04 AM 42.5961 -86.5358 256° West 380 437 18,300 -1,500 Descending Chicago Center
Thu 07:50:06 AM 42.5658 -86.6958 256° West 366 421 16,000 -2,129 Descending Chicago Center
Thu 07:51:08 AM 42.5361 -86.8231 252° West 359 413 13,900 -2,000 Descending Chicago Center
Thu 07:52:09 AM 42.5006 -86.9453 249° West 353 406 11,900 -1,805 Descending Chicago Center
Thu 07:53:11 AM 42.4669 -87.0631 249° West 341 392 10,200 -927 Descending Chicago Center
Thu 07:54:12 AM 42.4356 -87.1806 250° West 333 383 10,000 -195 Descending Chicago Center
Thu 07:55:14 AM 42.4053 -87.2897 249° West 308 354 9,800 -677 Descending Chicago Center
Thu 07:56:16 AM 42.3744 -87.3994 249° West 273 314 8,600 -976 Descending Chicago Center
Thu 07:57:17 AM 42.3208 -87.4397 209° Southwest 271 312 7,800 -976 Descending Chicago Center
Thu 07:58:19 AM 42.2367 -87.4711 195° South 264 304 6,600 -1,122 Descending Chicago Center
Thu 07:59:20 AM 42.1639 -87.4981 195° South 271 312 5,500 -976 Descending Chicago Center
Thu 08:00:22 AM 42.1008 -87.5419 207° Southwest 262 302 4,600 -726 Descending Chicago Center
Thu 08:01:24 AM 42.0472 -87.6031 220° Southwest 254 292 4,000 -439 Descending Chicago Center
Thu 08:02:25 AM 42.0194 -87.6869 246° West 248 285 3,700 -585 Descending Chicago Center
Thu 08:03:27 AM 42.0031 -87.7639 254° West 230 265 2,800 -871 Descending Chicago Center
Thu 08:04:29 AM 42.0019 -87.8189 268° West 176 203 1,900 -683 Descending Chicago Center
Thu 08:05:30 AM 42.0014 -87.8711 269° West 154 177 1,400 -492 Descending Chicago Center

Login

Don't have an account? Register now (free) for customized features, flight alerts, and more!